sensor_id;sensor_type;location;lat;lon;timestamp;P1;durP1;ratioP1;P2;durP2;ratioP2
60314;SDS011;46159;42.550;21.904;2024-02-26T00:00:04;59.25;;;41.25;;
60314;SDS011;46159;42.550;21.904;2024-02-26T00:02:34;57.88;;;39.72;;
60314;SDS011;46159;42.550;21.904;2024-02-26T00:05:04;66.80;;;44.20;;
60314;SDS011;46159;42.550;21.904;2024-02-26T00:07:32;61.80;;;44.38;;
60314;SDS011;46159;42.550;21.904;2024-02-26T00:09:58;78.15;;;52.13;;
60314;SDS011;46159;42.550;21.904;2024-02-26T00:12:24;78.30;;;54.45;;
60314;SDS011;46159;42.550;21.904;2024-02-26T00:14:50;92.30;;;58.00;;
60314;SDS011;46159;42.550;21.904;2024-02-26T00:17:17;75.38;;;52.33;;
60314;SDS011;46159;42.550;21.904;2024-02-26T00:19:44;69.55;;;47.72;;
60314;SDS011;46159;42.550;21.904;2024-02-26T00:22:10;67.00;;;44.97;;
60314;SDS011;46159;42.550;21.904;2024-02-26T00:24:36;62.88;;;42.90;;
60314;SDS011;46159;42.550;21.904;2024-02-26T00:27:02;78.45;;;48.10;;
60314;SDS011;46159;42.550;21.904;2024-02-26T00:29:28;81.78;;;53.58;;
60314;SDS011;46159;42.550;21.904;2024-02-26T00:31:54;79.30;;;54.45;;
60314;SDS011;46159;42.550;21.904;2024-02-26T00:34:20;70.70;;;48.60;;
60314;SDS011;46159;42.550;21.904;2024-02-26T00:36:46;72.82;;;50.42;;
60314;SDS011;46159;42.550;21.904;2024-02-26T00:39:12;72.68;;;49.17;;
60314;SDS011;46159;42.550;21.904;2024-02-26T00:41:39;54.95;;;35.65;;
60314;SDS011;46159;42.550;21.904;2024-02-26T00:44:06;37.63;;;24.50;;
60314;SDS011;46159;42.550;21.904;2024-02-26T00:46:32;35.80;;;24.20;;
60314;SDS011;46159;42.550;21.904;2024-02-26T00:48:58;45.92;;;32.03;;
60314;SDS011;46159;42.550;21.904;2024-02-26T00:51:25;38.75;;;27.70;;
60314;SDS011;46159;42.550;21.904;2024-02-26T00:53:51;43.50;;;26.40;;
60314;SDS011;46159;42.550;21.904;2024-02-26T00:56:17;45.65;;;28.20;;
60314;SDS011;46159;42.550;21.904;2024-02-26T00:58:43;45.72;;;30.90;;
60314;SDS011;46159;42.550;21.904;2024-02-26T01:01:09;46.20;;;30.42;;
60314;SDS011;46159;42.550;21.904;2024-02-26T01:03:35;48.25;;;31.73;;
60314;SDS011;46159;42.550;21.904;2024-02-26T01:06:01;48.92;;;30.92;;
60314;SDS011;46159;42.550;21.904;2024-02-26T01:08:28;48.55;;;32.92;;
60314;SDS011;46159;42.550;21.904;2024-02-26T01:10:54;56.10;;;37.60;;
60314;SDS011;46159;42.550;21.904;2024-02-26T01:13:20;83.10;;;54.60;;
60314;SDS011;46159;42.550;21.904;2024-02-26T01:15:46;49.40;;;34.85;;
60314;SDS011;46159;42.550;21.904;2024-02-26T01:18:12;47.53;;;33.42;;
60314;SDS011;46159;42.550;21.904;2024-02-26T01:20:38;50.85;;;34.22;;
60314;SDS011;46159;42.550;21.904;2024-02-26T01:23:04;59.25;;;37.78;;
60314;SDS011;46159;42.550;21.904;2024-02-26T01:25:30;56.22;;;37.55;;
60314;SDS011;46159;42.550;21.904;2024-02-26T01:27:57;47.85;;;34.17;;
60314;SDS011;46159;42.550;21.904;2024-02-26T01:30:23;42.30;;;28.50;;
60314;SDS011;46159;42.550;21.904;2024-02-26T01:32:49;43.58;;;30.63;;
60314;SDS011;46159;42.550;21.904;2024-02-26T01:35:15;44.20;;;29.95;;
60314;SDS011;46159;42.550;21.904;2024-02-26T01:37:41;39.75;;;28.70;;
60314;SDS011;46159;42.550;21.904;2024-02-26T01:40:07;45.42;;;30.80;;
60314;SDS011;46159;42.550;21.904;2024-02-26T01:42:34;43.63;;;31.45;;
60314;SDS011;46159;42.550;21.904;2024-02-26T01:45:00;51.15;;;35.38;;
60314;SDS011;46159;42.550;21.904;2024-02-26T01:47:27;51.92;;;35.35;;
60314;SDS011;46159;42.550;21.904;2024-02-26T01:49:53;43.30;;;31.25;;
60314;SDS011;46159;42.550;21.904;2024-02-26T01:52:20;37.30;;;27.17;;
60314;SDS011;46159;42.550;21.904;2024-02-26T01:54:47;37.50;;;27.00;;
60314;SDS011;46159;42.550;21.904;2024-02-26T01:57:13;33.58;;;24.58;;
60314;SDS011;46159;42.550;21.904;2024-02-26T01:59:40;35.58;;;23.63;;
60314;SDS011;46159;42.550;21.904;2024-02-26T02:02:06;33.28;;;23.15;;
60314;SDS011;46159;42.550;21.904;2024-02-26T02:04:36;35.25;;;22.20;;
60314;SDS011;46159;42.550;21.904;2024-02-26T02:07:03;32.65;;;21.27;;
60314;SDS011;46159;42.550;21.904;2024-02-26T02:09:29;28.45;;;21.02;;
60314;SDS011;46159;42.550;21.904;2024-02-26T02:11:55;32.88;;;21.08;;
60314;SDS011;46159;42.550;21.904;2024-02-26T02:14:21;31.92;;;19.90;;
60314;SDS011;46159;42.550;21.904;2024-02-26T02:16:47;24.30;;;16.77;;
60314;SDS011;46159;42.550;21.904;2024-02-26T02:19:14;29.27;;;18.70;;
60314;SDS011;46159;42.550;21.904;2024-02-26T02:21:40;25.85;;;16.80;;
60314;SDS011;46159;42.550;21.904;2024-02-26T02:24:06;23.20;;;17.15;;
60314;SDS011;46159;42.550;21.904;2024-02-26T02:26:32;23.35;;;16.38;;
60314;SDS011;46159;42.550;21.904;2024-02-26T02:28:58;22.67;;;16.58;;
60314;SDS011;46159;42.550;21.904;2024-02-26T02:31:24;23.52;;;16.05;;
60314;SDS011;46159;42.550;21.904;2024-02-26T02:33:50;22.98;;;16.08;;
60314;SDS011;46159;42.550;21.904;2024-02-26T02:36:16;24.30;;;16.60;;
60314;SDS011;46159;42.550;21.904;2024-02-26T02:38:49;24.20;;;15.77;;
60314;SDS011;46159;42.550;21.904;2024-02-26T02:41:15;24.10;;;15.65;;
60314;SDS011;46159;42.550;21.904;2024-02-26T02:43:41;22.85;;;14.98;;
60314;SDS011;46159;42.550;21.904;2024-02-26T02:46:08;27.92;;;16.30;;
60314;SDS011;46159;42.550;21.904;2024-02-26T02:48:34;23.02;;;15.90;;
60314;SDS011;46159;42.550;21.904;2024-02-26T02:51:00;25.80;;;17.02;;
60314;SDS011;46159;42.550;21.904;2024-02-26T02:53:26;25.50;;;17.50;;
60314;SDS011;46159;42.550;21.904;2024-02-26T02:55:52;25.50;;;17.15;;
60314;SDS011;46159;42.550;21.904;2024-02-26T02:58:18;23.55;;;16.13;;
60314;SDS011;46159;42.550;21.904;2024-02-26T03:00:44;24.45;;;17.55;;
60314;SDS011;46159;42.550;21.904;2024-02-26T03:03:10;24.02;;;16.35;;
60314;SDS011;46159;42.550;21.904;2024-02-26T03:05:36;24.92;;;15.77;;
60314;SDS011;46159;42.550;21.904;2024-02-26T03:08:03;26.50;;;19.73;;
60314;SDS011;46159;42.550;21.904;2024-02-26T03:10:29;26.98;;;16.67;;
60314;SDS011;46159;42.550;21.904;2024-02-26T03:12:55;27.40;;;17.67;;
60314;SDS011;46159;42.550;21.904;2024-02-26T03:15:21;25.52;;;18.55;;
60314;SDS011;46159;42.550;21.904;2024-02-26T03:17:47;28.85;;;19.38;;
60314;SDS011;46159;42.550;21.904;2024-02-26T03:20:13;35.80;;;24.30;;
60314;SDS011;46159;42.550;21.904;2024-02-26T03:22:40;24.30;;;17.50;;
60314;SDS011;46159;42.550;21.904;2024-02-26T03:25:06;29.42;;;20.17;;
60314;SDS011;46159;42.550;21.904;2024-02-26T03:27:32;28.95;;;17.38;;
60314;SDS011;46159;42.550;21.904;2024-02-26T03:29:58;27.17;;;18.40;;
60314;SDS011;46159;42.550;21.904;2024-02-26T03:32:24;28.27;;;18.25;;
60314;SDS011;46159;42.550;21.904;2024-02-26T03:34:50;31.45;;;19.27;;
60314;SDS011;46159;42.550;21.904;2024-02-26T03:37:19;26.85;;;19.40;;
60314;SDS011;46159;42.550;21.904;2024-02-26T03:39:46;33.22;;;21.70;;
60314;SDS011;46159;42.550;21.904;2024-02-26T03:42:12;29.38;;;20.55;;
60314;SDS011;46159;42.550;21.904;2024-02-26T03:44:38;29.38;;;19.52;;
60314;SDS011;46159;42.550;21.904;2024-02-26T03:47:04;29.13;;;18.05;;
60314;SDS011;46159;42.550;21.904;2024-02-26T03:49:30;27.45;;;19.50;;
60314;SDS011;46159;42.550;21.904;2024-02-26T03:51:56;28.65;;;19.00;;
60314;SDS011;46159;42.550;21.904;2024-02-26T03:54:22;30.40;;;19.00;;
60314;SDS011;46159;42.550;21.904;2024-02-26T03:56:48;28.50;;;18.63;;
60314;SDS011;46159;42.550;21.904;2024-02-26T03:59:14;28.45;;;18.88;;
60314;SDS011;46159;42.550;21.904;2024-02-26T04:01:44;33.53;;;19.67;;
60314;SDS011;46159;42.550;21.904;2024-02-26T04:04:11;24.90;;;19.27;;
60314;SDS011;46159;42.550;21.904;2024-02-26T04:06:37;27.60;;;18.65;;
60314;SDS011;46159;42.550;21.904;2024-02-26T04:09:05;30.35;;;20.25;;
60314;SDS011;46159;42.550;21.904;2024-02-26T04:11:31;32.63;;;19.80;;
60314;SDS011;46159;42.550;21.904;2024-02-26T04:13:57;29.08;;;22.40;;
60314;SDS011;46159;42.550;21.904;2024-02-26T04:16:23;29.27;;;20.80;;
60314;SDS011;46159;42.550;21.904;2024-02-26T04:18:49;34.63;;;25.70;;
60314;SDS011;46159;42.550;21.904;2024-02-26T04:21:15;24.85;;;18.40;;
60314;SDS011;46159;42.550;21.904;2024-02-26T04:23:41;27.33;;;18.88;;
60314;SDS011;46159;42.550;21.904;2024-02-26T04:26:07;27.98;;;17.70;;
60314;SDS011;46159;42.550;21.904;2024-02-26T04:28:33;24.73;;;17.92;;
60314;SDS011;46159;42.550;21.904;2024-02-26T04:31:01;29.60;;;18.30;;
60314;SDS011;46159;42.550;21.904;2024-02-26T04:33:27;29.63;;;22.20;;
60314;SDS011;46159;42.550;21.904;2024-02-26T04:35:53;31.90;;;20.48;;
60314;SDS011;46159;42.550;21.904;2024-02-26T04:38:19;33.63;;;19.98;;
60314;SDS011;46159;42.550;21.904;2024-02-26T04:40:45;37.05;;;21.30;;
60314;SDS011;46159;42.550;21.904;2024-02-26T04:43:11;33.63;;;20.10;;
60314;SDS011;46159;42.550;21.904;2024-02-26T04:45:38;39.67;;;20.00;;
60314;SDS011;46159;42.550;21.904;2024-02-26T04:48:04;30.58;;;20.08;;
60314;SDS011;46159;42.550;21.904;2024-02-26T04:50:30;30.25;;;18.83;;
60314;SDS011;46159;42.550;21.904;2024-02-26T04:52:56;31.73;;;18.98;;
60314;SDS011;46159;42.550;21.904;2024-02-26T04:55:22;28.52;;;17.50;;
60314;SDS011;46159;42.550;21.904;2024-02-26T04:57:48;32.42;;;18.65;;
60314;SDS011;46159;42.550;21.904;2024-02-26T05:00:14;30.85;;;17.58;;
60314;SDS011;46159;42.550;21.904;2024-02-26T05:02:41;27.48;;;17.25;;
60314;SDS011;46159;42.550;21.904;2024-02-26T05:05:07;27.55;;;17.50;;
60314;SDS011;46159;42.550;21.904;2024-02-26T05:07:34;36.88;;;19.95;;
60314;SDS011;46159;42.550;21.904;2024-02-26T05:10:00;31.15;;;21.08;;
60314;SDS011;46159;42.550;21.904;2024-02-26T05:12:26;41.28;;;20.38;;
60314;SDS011;46159;42.550;21.904;2024-02-26T05:14:52;36.22;;;21.27;;
60314;SDS011;46159;42.550;21.904;2024-02-26T05:17:18;33.35;;;21.23;;
60314;SDS011;46159;42.550;21.904;2024-02-26T05:19:44;32.38;;;21.15;;
60314;SDS011;46159;42.550;21.904;2024-02-26T05:22:10;37.05;;;19.92;;
60314;SDS011;46159;42.550;21.904;2024-02-26T05:24:39;41.97;;;22.67;;
60314;SDS011;46159;42.550;21.904;2024-02-26T05:27:05;38.75;;;22.58;;
60314;SDS011;46159;42.550;21.904;2024-02-26T05:29:31;52.03;;;23.50;;
60314;SDS011;46159;42.550;21.904;2024-02-26T05:31:57;40.28;;;22.27;;
60314;SDS011;46159;42.550;21.904;2024-02-26T05:34:23;39.40;;;23.50;;
60314;SDS011;46159;42.550;21.904;2024-02-26T05:36:50;42.80;;;24.77;;
60314;SDS011;46159;42.550;21.904;2024-02-26T05:39:16;36.45;;;23.75;;
60314;SDS011;46159;42.550;21.904;2024-02-26T05:41:42;37.20;;;24.30;;
60314;SDS011;46159;42.550;21.904;2024-02-26T05:44:09;42.42;;;26.52;;
60314;SDS011;46159;42.550;21.904;2024-02-26T05:46:35;48.35;;;30.60;;
60314;SDS011;46159;42.550;21.904;2024-02-26T05:49:01;57.05;;;37.75;;
60314;SDS011;46159;42.550;21.904;2024-02-26T05:51:28;57.15;;;36.83;;
60314;SDS011;46159;42.550;21.904;2024-02-26T05:53:54;89.28;;;45.60;;
60314;SDS011;46159;42.550;21.904;2024-02-26T05:56:23;76.40;;;45.55;;
60314;SDS011;46159;42.550;21.904;2024-02-26T05:58:49;78.82;;;48.63;;
60314;SDS011;46159;42.550;21.904;2024-02-26T06:01:16;69.80;;;43.13;;
60314;SDS011;46159;42.550;21.904;2024-02-26T06:03:42;81.45;;;50.25;;
60314;SDS011;46159;42.550;21.904;2024-02-26T06:06:09;96.32;;;51.42;;
60314;SDS011;46159;42.550;21.904;2024-02-26T06:08:38;85.63;;;49.63;;
60314;SDS011;46159;42.550;21.904;2024-02-26T06:11:07;120.25;;;67.78;;
60314;SDS011;46159;42.550;21.904;2024-02-26T06:13:36;111.30;;;65.47;;
60314;SDS011;46159;42.550;21.904;2024-02-26T06:16:02;109.82;;;61.10;;
60314;SDS011;46159;42.550;21.904;2024-02-26T06:18:28;111.03;;;64.60;;
60314;SDS011;46159;42.550;21.904;2024-02-26T06:20:55;121.20;;;68.45;;
60314;SDS011;46159;42.550;21.904;2024-02-26T06:23:21;130.63;;;80.78;;
60314;SDS011;46159;42.550;21.904;2024-02-26T06:25:47;130.25;;;81.70;;
60314;SDS011;46159;42.550;21.904;2024-02-26T06:28:13;161.45;;;90.43;;
60314;SDS011;46159;42.550;21.904;2024-02-26T06:30:39;161.45;;;99.97;;
60314;SDS011;46159;42.550;21.904;2024-02-26T06:33:05;161.13;;;99.53;;
60314;SDS011;46159;42.550;21.904;2024-02-26T06:35:31;158.38;;;99.38;;
60314;SDS011;46159;42.550;21.904;2024-02-26T06:37:58;144.15;;;85.05;;
60314;SDS011;46159;42.550;21.904;2024-02-26T06:40:26;137.65;;;91.35;;
60314;SDS011;46159;42.550;21.904;2024-02-26T06:42:52;138.73;;;91.97;;
60314;SDS011;46159;42.550;21.904;2024-02-26T06:45:18;157.65;;;95.65;;
60314;SDS011;46159;42.550;21.904;2024-02-26T06:47:44;145.57;;;93.38;;
60314;SDS011;46159;42.550;21.904;2024-02-26T06:50:14;158.23;;;100.50;;
60314;SDS011;46159;42.550;21.904;2024-02-26T06:52:40;157.85;;;102.20;;
60314;SDS011;46159;42.550;21.904;2024-02-26T06:55:06;168.98;;;104.75;;
60314;SDS011;46159;42.550;21.904;2024-02-26T06:57:33;168.70;;;109.88;;
60314;SDS011;46159;42.550;21.904;2024-02-26T06:59:59;153.18;;;98.82;;
60314;SDS011;46159;42.550;21.904;2024-02-26T07:02:25;143.35;;;84.45;;
60314;SDS011;46159;42.550;21.904;2024-02-26T07:04:51;146.98;;;86.15;;
60314;SDS011;46159;42.550;21.904;2024-02-26T07:07:17;100.38;;;66.97;;
60314;SDS011;46159;42.550;21.904;2024-02-26T07:09:44;96.35;;;57.85;;
60314;SDS011;46159;42.550;21.904;2024-02-26T07:12:10;93.07;;;59.05;;
60314;SDS011;46159;42.550;21.904;2024-02-26T07:14:36;93.72;;;63.45;;
60314;SDS011;46159;42.550;21.904;2024-02-26T07:17:02;93.38;;;58.83;;
60314;SDS011;46159;42.550;21.904;2024-02-26T07:19:29;90.95;;;63.78;;
60314;SDS011;46159;42.550;21.904;2024-02-26T07:21:55;110.45;;;69.80;;
60314;SDS011;46159;42.550;21.904;2024-02-26T07:24:21;113.40;;;74.10;;
60314;SDS011;46159;42.550;21.904;2024-02-26T07:26:47;98.93;;;65.22;;
60314;SDS011;46159;42.550;21.904;2024-02-26T07:29:13;91.80;;;61.53;;
60314;SDS011;46159;42.550;21.904;2024-02-26T07:31:39;108.63;;;67.65;;
60314;SDS011;46159;42.550;21.904;2024-02-26T07:34:05;100.72;;;69.38;;
60314;SDS011;46159;42.550;21.904;2024-02-26T07:36:31;66.28;;;45.20;;
60314;SDS011;46159;42.550;21.904;2024-02-26T07:38:57;39.60;;;26.75;;
60314;SDS011;46159;42.550;21.904;2024-02-26T07:41:23;38.97;;;24.67;;
60314;SDS011;46159;42.550;21.904;2024-02-26T07:43:50;35.00;;;23.00;;
60314;SDS011;46159;42.550;21.904;2024-02-26T07:46:16;19.30;;;12.07;;
60314;SDS011;46159;42.550;21.904;2024-02-26T07:48:42;30.05;;;17.98;;
60314;SDS011;46159;42.550;21.904;2024-02-26T07:51:08;41.10;;;25.52;;
60314;SDS011;46159;42.550;21.904;2024-02-26T07:53:34;41.25;;;28.08;;
60314;SDS011;46159;42.550;21.904;2024-02-26T07:56:00;43.00;;;27.15;;
60314;SDS011;46159;42.550;21.904;2024-02-26T07:58:34;46.88;;;29.83;;
60314;SDS011;46159;42.550;21.904;2024-02-26T08:01:00;46.85;;;28.77;;
60314;SDS011;46159;42.550;21.904;2024-02-26T08:03:26;39.45;;;25.80;;
60314;SDS011;46159;42.550;21.904;2024-02-26T08:05:53;38.10;;;25.33;;
60314;SDS011;46159;42.550;21.904;2024-02-26T08:08:19;47.78;;;30.02;;
60314;SDS011;46159;42.550;21.904;2024-02-26T08:10:45;56.22;;;37.78;;
60314;SDS011;46159;42.550;21.904;2024-02-26T08:13:11;40.65;;;29.75;;
60314;SDS011;46159;42.550;21.904;2024-02-26T08:15:37;45.63;;;30.70;;
60314;SDS011;46159;42.550;21.904;2024-02-26T08:18:03;52.00;;;37.42;;
60314;SDS011;46159;42.550;21.904;2024-02-26T08:20:30;40.05;;;29.70;;
60314;SDS011;46159;42.550;21.904;2024-02-26T08:22:56;54.20;;;35.97;;
60314;SDS011;46159;42.550;21.904;2024-02-26T08:25:23;73.90;;;49.58;;
60314;SDS011;46159;42.550;21.904;2024-02-26T08:27:49;66.20;;;49.67;;
60314;SDS011;46159;42.550;21.904;2024-02-26T08:30:16;94.18;;;56.15;;
60314;SDS011;46159;42.550;21.904;2024-02-26T08:32:45;86.90;;;66.10;;
60314;SDS011;46159;42.550;21.904;2024-02-26T08:35:11;73.57;;;53.58;;
60314;SDS011;46159;42.550;21.904;2024-02-26T08:37:38;73.25;;;54.22;;
60314;SDS011;46159;42.550;21.904;2024-02-26T08:40:04;86.85;;;57.60;;
60314;SDS011;46159;42.550;21.904;2024-02-26T08:42:31;82.30;;;57.00;;
60314;SDS011;46159;42.550;21.904;2024-02-26T08:44:57;61.72;;;42.55;;
60314;SDS011;46159;42.550;21.904;2024-02-26T08:47:25;62.92;;;46.65;;
60314;SDS011;46159;42.550;21.904;2024-02-26T08:49:51;76.80;;;56.80;;
60314;SDS011;46159;42.550;21.904;2024-02-26T08:52:17;58.25;;;47.72;;
60314;SDS011;46159;42.550;21.904;2024-02-26T08:54:43;61.95;;;46.75;;
60314;SDS011;46159;42.550;21.904;2024-02-26T08:57:09;58.40;;;44.60;;
60314;SDS011;46159;42.550;21.904;2024-02-26T08:59:35;57.03;;;41.75;;
60314;SDS011;46159;42.550;21.904;2024-02-26T09:02:02;58.33;;;42.42;;
60314;SDS011;46159;42.550;21.904;2024-02-26T09:04:28;56.78;;;40.65;;
60314;SDS011;46159;42.550;21.904;2024-02-26T09:06:54;47.63;;;36.22;;
60314;SDS011;46159;42.550;21.904;2024-02-26T09:09:21;45.50;;;33.67;;
60314;SDS011;46159;42.550;21.904;2024-02-26T09:11:47;48.85;;;33.33;;
60314;SDS011;46159;42.550;21.904;2024-02-26T09:14:16;44.60;;;32.33;;
60314;SDS011;46159;42.550;21.904;2024-02-26T09:16:42;41.38;;;29.30;;
60314;SDS011;46159;42.550;21.904;2024-02-26T09:19:08;42.22;;;28.23;;
60314;SDS011;46159;42.550;21.904;2024-02-26T09:21:34;34.85;;;23.92;;
60314;SDS011;46159;42.550;21.904;2024-02-26T09:24:01;47.25;;;31.17;;
60314;SDS011;46159;42.550;21.904;2024-02-26T09:26:27;34.25;;;22.90;;
60314;SDS011;46159;42.550;21.904;2024-02-26T09:28:53;39.67;;;21.60;;
60314;SDS011;46159;42.550;21.904;2024-02-26T09:31:19;41.10;;;23.33;;
60314;SDS011;46159;42.550;21.904;2024-02-26T09:33:45;34.42;;;20.38;;
60314;SDS011;46159;42.550;21.904;2024-02-26T09:36:11;25.02;;;15.05;;
60314;SDS011;46159;42.550;21.904;2024-02-26T09:38:38;24.88;;;14.07;;
60314;SDS011;46159;42.550;21.904;2024-02-26T09:41:05;22.42;;;13.88;;
60314;SDS011;46159;42.550;21.904;2024-02-26T09:43:34;22.45;;;12.13;;
60314;SDS011;46159;42.550;21.904;2024-02-26T09:46:07;18.65;;;12.05;;
60314;SDS011;46159;42.550;21.904;2024-02-26T09:48:34;15.95;;;9.60;;
60314;SDS011;46159;42.550;21.904;2024-02-26T09:51:01;17.83;;;10.52;;
60314;SDS011;46159;42.550;21.904;2024-02-26T09:53:29;29.63;;;12.68;;
60314;SDS011;46159;42.550;21.904;2024-02-26T09:55:57;19.90;;;11.63;;
60314;SDS011;46159;42.550;21.904;2024-02-26T09:58:23;18.77;;;9.85;;
60314;SDS011;46159;42.550;21.904;2024-02-26T10:00:53;24.55;;;13.23;;
60314;SDS011;46159;42.550;21.904;2024-02-26T10:03:38;20.48;;;10.35;;
60314;SDS011;46159;42.550;21.904;2024-02-26T10:06:06;21.52;;;11.75;;
60314;SDS011;46159;42.550;21.904;2024-02-26T10:08:33;16.73;;;8.27;;
60314;SDS011;46159;42.550;21.904;2024-02-26T10:11:00;17.40;;;7.78;;
60314;SDS011;46159;42.550;21.904;2024-02-26T10:13:26;18.30;;;7.50;;
60314;SDS011;46159;42.550;21.904;2024-02-26T10:15:52;14.18;;;6.70;;
60314;SDS011;46159;42.550;21.904;2024-02-26T10:18:18;18.80;;;12.90;;
60314;SDS011;46159;42.550;21.904;2024-02-26T10:21:00;15.50;;;7.22;;
60314;SDS011;46159;42.550;21.904;2024-02-26T10:23:27;13.15;;;6.63;;
60314;SDS011;46159;42.550;21.904;2024-02-26T10:25:56;18.15;;;9.77;;
60314;SDS011;46159;42.550;21.904;2024-02-26T10:28:22;10.05;;;5.18;;
60314;SDS011;46159;42.550;21.904;2024-02-26T10:30:49;15.43;;;6.80;;
60314;SDS011;46159;42.550;21.904;2024-02-26T10:33:16;10.35;;;4.70;;
60314;SDS011;46159;42.550;21.904;2024-02-26T10:35:46;10.32;;;4.47;;
60314;SDS011;46159;42.550;21.904;2024-02-26T10:38:12;11.38;;;4.47;;
60314;SDS011;46159;42.550;21.904;2024-02-26T10:40:38;13.25;;;5.00;;
60314;SDS011;46159;42.550;21.904;2024-02-26T10:43:04;16.42;;;6.35;;
60314;SDS011;46159;42.550;21.904;2024-02-26T10:45:31;12.02;;;5.22;;
60314;SDS011;46159;42.550;21.904;2024-02-26T10:47:57;25.17;;;11.10;;
60314;SDS011;46159;42.550;21.904;2024-02-26T10:50:23;16.50;;;6.45;;
60314;SDS011;46159;42.550;21.904;2024-02-26T10:52:50;16.48;;;7.80;;
60314;SDS011;46159;42.550;21.904;2024-02-26T10:55:16;12.05;;;4.45;;
60314;SDS011;46159;42.550;21.904;2024-02-26T10:57:44;17.10;;;7.90;;
60314;SDS011;46159;42.550;21.904;2024-02-26T11:00:13;14.68;;;6.47;;
60314;SDS011;46159;42.550;21.904;2024-02-26T11:02:40;15.55;;;7.43;;
60314;SDS011;46159;42.550;21.904;2024-02-26T11:05:08;15.77;;;8.00;;
60314;SDS011;46159;42.550;21.904;2024-02-26T11:07:34;19.08;;;8.27;;
60314;SDS011;46159;42.550;21.904;2024-02-26T11:10:04;13.82;;;5.65;;
60314;SDS011;46159;42.550;21.904;2024-02-26T11:12:34;12.50;;;6.47;;
60314;SDS011;46159;42.550;21.904;2024-02-26T11:15:02;15.05;;;5.72;;
60314;SDS011;46159;42.550;21.904;2024-02-26T11:17:29;13.25;;;6.32;;
60314;SDS011;46159;42.550;21.904;2024-02-26T11:19:56;12.27;;;3.88;;
60314;SDS011;46159;42.550;21.904;2024-02-26T11:22:27;11.07;;;4.97;;
60314;SDS011;46159;42.550;21.904;2024-02-26T11:43:14;19.98;;;11.77;;
60314;SDS011;46159;42.550;21.904;2024-02-26T11:48:14;25.17;;;8.75;;
60314;SDS011;46159;42.550;21.904;2024-02-26T11:50:42;14.80;;;7.65;;
60314;SDS011;46159;42.550;21.904;2024-02-26T11:53:22;14.43;;;7.40;;
60314;SDS011;46159;42.550;21.904;2024-02-26T11:56:34;19.13;;;6.40;;
60314;SDS011;46159;42.550;21.904;2024-02-26T11:58:35;11.52;;;4.88;;
60314;SDS011;46159;42.550;21.904;2024-02-26T12:01:02;12.10;;;6.35;;
60314;SDS011;46159;42.550;21.904;2024-02-26T12:03:29;16.77;;;4.93;;
60314;SDS011;46159;42.550;21.904;2024-02-26T12:05:55;16.15;;;8.20;;
60314;SDS011;46159;42.550;21.904;2024-02-26T12:08:22;16.60;;;5.85;;
60314;SDS011;46159;42.550;21.904;2024-02-26T12:10:48;22.55;;;8.18;;
60314;SDS011;46159;42.550;21.904;2024-02-26T12:13:15;16.02;;;5.57;;
60314;SDS011;46159;42.550;21.904;2024-02-26T12:15:42;18.08;;;9.23;;
60314;SDS011;46159;42.550;21.904;2024-02-26T12:18:09;22.95;;;9.80;;
60314;SDS011;46159;42.550;21.904;2024-02-26T12:20:38;14.82;;;5.13;;
60314;SDS011;46159;42.550;21.904;2024-02-26T12:23:04;10.73;;;5.50;;
60314;SDS011;46159;42.550;21.904;2024-02-26T12:25:31;14.82;;;5.60;;
60314;SDS011;46159;42.550;21.904;2024-02-26T12:27:58;17.85;;;5.75;;
60314;SDS011;46159;42.550;21.904;2024-02-26T12:30:24;21.15;;;7.53;;
60314;SDS011;46159;42.550;21.904;2024-02-26T12:32:55;16.83;;;6.63;;
60314;SDS011;46159;42.550;21.904;2024-02-26T12:35:22;17.00;;;4.97;;
60314;SDS011;46159;42.550;21.904;2024-02-26T12:37:48;14.27;;;5.75;;
60314;SDS011;46159;42.550;21.904;2024-02-26T12:40:16;14.43;;;7.28;;
60314;SDS011;46159;42.550;21.904;2024-02-26T12:42:42;17.25;;;6.82;;
60314;SDS011;46159;42.550;21.904;2024-02-26T12:45:09;13.40;;;3.92;;
60314;SDS011;46159;42.550;21.904;2024-02-26T12:47:39;15.95;;;7.18;;
60314;SDS011;46159;42.550;21.904;2024-02-26T12:50:06;22.60;;;15.27;;
60314;SDS011;46159;42.550;21.904;2024-02-26T12:52:33;43.67;;;22.05;;
60314;SDS011;46159;42.550;21.904;2024-02-26T12:54:59;27.02;;;13.70;;
60314;SDS011;46159;42.550;21.904;2024-02-26T13:03:50;18.83;;;8.95;;
60314;SDS011;46159;42.550;21.904;2024-02-26T13:06:17;11.88;;;6.82;;
60314;SDS011;46159;42.550;21.904;2024-02-26T13:08:44;16.55;;;7.93;;
60314;SDS011;46159;42.550;21.904;2024-02-26T13:11:10;14.38;;;7.20;;
60314;SDS011;46159;42.550;21.904;2024-02-26T13:13:36;16.70;;;7.75;;
60314;SDS011;46159;42.550;21.904;2024-02-26T13:16:06;18.17;;;8.40;;
60314;SDS011;46159;42.550;21.904;2024-02-26T13:18:33;21.83;;;10.05;;
60314;SDS011;46159;42.550;21.904;2024-02-26T13:21:09;22.92;;;10.98;;
60314;SDS011;46159;42.550;21.904;2024-02-26T13:23:37;13.25;;;6.88;;
60314;SDS011;46159;42.550;21.904;2024-02-26T13:26:03;23.30;;;11.20;;
60314;SDS011;46159;42.550;21.904;2024-02-26T13:28:29;16.27;;;7.60;;
60314;SDS011;46159;42.550;21.904;2024-02-26T13:30:56;18.77;;;9.98;;
60314;SDS011;46159;42.550;21.904;2024-02-26T13:33:23;16.98;;;8.70;;
60314;SDS011;46159;42.550;21.904;2024-02-26T13:35:49;18.50;;;8.60;;
60314;SDS011;46159;42.550;21.904;2024-02-26T13:38:16;17.20;;;7.47;;
60314;SDS011;46159;42.550;21.904;2024-02-26T13:40:42;17.73;;;7.10;;
60314;SDS011;46159;42.550;21.904;2024-02-26T13:43:08;12.48;;;5.22;;
60314;SDS011;46159;42.550;21.904;2024-02-26T13:45:35;13.48;;;5.78;;
60314;SDS011;46159;42.550;21.904;2024-02-26T13:48:02;12.20;;;4.47;;
60314;SDS011;46159;42.550;21.904;2024-02-26T13:50:28;16.55;;;8.57;;
60314;SDS011;46159;42.550;21.904;2024-02-26T13:52:54;27.15;;;9.25;;
60314;SDS011;46159;42.550;21.904;2024-02-26T13:55:27;11.52;;;5.50;;
60314;SDS011;46159;42.550;21.904;2024-02-26T13:57:59;11.68;;;5.20;;
60314;SDS011;46159;42.550;21.904;2024-02-26T14:00:28;18.75;;;8.13;;
60314;SDS011;46159;42.550;21.904;2024-02-26T14:02:57;12.20;;;6.13;;
60314;SDS011;46159;42.550;21.904;2024-02-26T14:05:23;18.23;;;8.02;;
60314;SDS011;46159;42.550;21.904;2024-02-26T14:07:49;15.18;;;9.13;;
60314;SDS011;46159;42.550;21.904;2024-02-26T14:10:15;16.75;;;8.65;;
60314;SDS011;46159;42.550;21.904;2024-02-26T14:12:41;15.95;;;7.22;;
60314;SDS011;46159;42.550;21.904;2024-02-26T14:15:08;27.50;;;8.60;;
60314;SDS011;46159;42.550;21.904;2024-02-26T14:17:36;18.23;;;7.70;;
60314;SDS011;46159;42.550;21.904;2024-02-26T14:20:02;23.67;;;9.13;;
60314;SDS011;46159;42.550;21.904;2024-02-26T14:22:29;14.18;;;7.32;;
60314;SDS011;46159;42.550;21.904;2024-02-26T14:24:58;15.65;;;8.50;;
60314;SDS011;46159;42.550;21.904;2024-02-26T14:27:24;21.15;;;13.95;;
60314;SDS011;46159;42.550;21.904;2024-02-26T14:29:50;23.58;;;13.93;;
60314;SDS011;46159;42.550;21.904;2024-02-26T14:32:16;20.00;;;13.52;;
60314;SDS011;46159;42.550;21.904;2024-02-26T14:34:42;24.92;;;11.00;;